createdAt,value
2022-12-16T00:00:15.945Z,31.48
2022-12-16T00:02:43.662Z,36.45
2022-12-16T00:05:11.137Z,33.50
2022-12-16T00:07:38.482Z,33.83
2022-12-16T00:10:07.314Z,34.60
2022-12-16T00:12:35.639Z,34.65
2022-12-16T00:15:02.990Z,36.75
2022-12-16T00:17:30.628Z,32.70
2022-12-16T00:19:57.965Z,31.00
2022-12-16T00:22:25.314Z,30.60
2022-12-16T00:24:53.027Z,31.98
2022-12-16T00:27:20.390Z,7.32
2022-12-16T00:29:47.743Z,32.00
2022-12-16T00:32:15.408Z,33.00
2022-12-16T00:34:42.767Z,29.08
2022-12-16T00:37:11.830Z,29.08
2022-12-16T00:39:39.451Z,32.30
2022-12-16T00:42:06.856Z,8.65
2022-12-16T00:44:34.269Z,27.48
2022-12-16T00:47:01.897Z,1.25
2022-12-16T00:49:29.400Z,25.00
2022-12-16T00:51:56.756Z,25.75
2022-12-16T00:54:24.381Z,1.48
2022-12-16T00:56:51.732Z,27.10
2022-12-16T00:59:19.425Z,28.98
2022-12-16T01:01:47.186Z,25.55
2022-12-16T01:04:14.699Z,25.15
2022-12-16T01:06:42.064Z,26.90
2022-12-16T01:09:09.749Z,6.57
2022-12-16T01:11:37.092Z,32.17
2022-12-16T01:14:04.911Z,29.75
2022-12-16T01:16:32.616Z,25.55
2022-12-16T01:19:00.088Z,19.42
2022-12-16T01:21:27.442Z,21.02
2022-12-16T01:23:55.145Z,19.62
2022-12-16T01:26:22.759Z,21.10
2022-12-16T01:28:50.100Z,21.40
2022-12-16T01:31:19.449Z,23.00
2022-12-16T01:33:47.106Z,21.83
2022-12-16T01:36:14.674Z,22.00
2022-12-16T01:38:44.329Z,21.00
2022-12-16T01:41:13.665Z,20.83
2022-12-16T01:43:42.368Z,23.30
2022-12-16T01:46:13.096Z,19.33
2022-12-16T01:48:47.889Z,18.77
2022-12-16T01:51:24.398Z,23.85
2022-12-16T01:53:56.142Z,17.45
2022-12-16T01:56:25.620Z,3.15
2022-12-16T01:58:53.171Z,22.80
2022-12-16T02:01:23.032Z,18.23
2022-12-16T02:03:52.845Z,2.05
2022-12-16T02:06:20.577Z,17.42
2022-12-16T02:08:52.569Z,18.95
2022-12-16T02:11:29.390Z,18.48
2022-12-16T02:14:28.718Z,22.17
2022-12-16T02:17:05.055Z,0.90
2022-12-16T02:19:57.205Z,21.70
2022-12-16T02:22:53.254Z,20.77
2022-12-16T02:25:26.157Z,20.55
2022-12-16T02:28:01.342Z,19.50
2022-12-16T02:33:14.740Z,20.33
2022-12-16T02:35:52.995Z,24.30
2022-12-16T02:39:04.375Z,1.60
2022-12-16T02:41:53.442Z,0.90
2022-12-16T02:44:46.694Z,21.23
2022-12-16T02:47:14.235Z,19.40
2022-12-16T02:49:50.364Z,20.30
2022-12-16T02:52:20.928Z,18.12
2022-12-16T02:54:51.387Z,2.62
2022-12-16T02:57:55.949Z,20.92
2022-12-16T03:00:24.567Z,22.33
2022-12-16T03:03:02.864Z,20.50
2022-12-16T03:05:50.883Z,2.03
2022-12-16T03:08:27.070Z,23.85
2022-12-16T03:10:58.147Z,23.15
2022-12-16T03:13:25.770Z,21.55
2022-12-16T03:15:54.020Z,22.67
2022-12-16T03:18:22.417Z,14.32
2022-12-16T03:21:00.236Z,22.62
2022-12-16T03:23:34.430Z,21.08
2022-12-16T03:26:21.913Z,12.60
2022-12-16T03:28:57.907Z,18.08
2022-12-16T03:31:41.938Z,1.90
2022-12-16T03:34:33.011Z,21.60
2022-12-16T03:37:04.214Z,1.65
2022-12-16T03:39:35.245Z,1.65
2022-12-16T03:42:03.750Z,17.30
2022-12-16T03:44:31.230Z,18.85
2022-12-16T03:46:58.886Z,19.58
2022-12-16T03:49:26.333Z,18.25
2022-12-16T03:51:54.970Z,17.08
2022-12-16T03:54:23.533Z,1.02
2022-12-16T03:56:50.852Z,16.80
2022-12-16T03:59:18.266Z,18.83
2022-12-16T04:01:45.971Z,16.90
2022-12-16T04:04:13.673Z,2.62
2022-12-16T04:06:41.006Z,18.17
2022-12-16T04:09:08.496Z,20.52
2022-12-16T04:11:54.722Z,21.73
2022-12-16T04:14:40.622Z,20.70
2022-12-16T04:17:28.882Z,22.98
2022-12-16T04:20:14.897Z,22.33
2022-12-16T04:23:02.107Z,24.77
2022-12-16T04:25:35.744Z,18.05
2022-12-16T04:28:03.390Z,19.98
2022-12-16T04:30:34.672Z,21.48
2022-12-16T04:33:27.358Z,20.10
2022-12-16T04:36:13.695Z,19.58
2022-12-16T04:38:59.753Z,5.32
2022-12-16T04:41:46.012Z,17.67
2022-12-16T04:44:32.452Z,18.90
2022-12-16T04:47:19.016Z,17.00
2022-12-16T04:50:04.886Z,21.48
2022-12-16T04:52:51.012Z,20.10
2022-12-16T04:55:36.849Z,1.42
2022-12-16T04:58:23.085Z,18.67
2022-12-16T05:01:09.873Z,20.00
2022-12-16T05:03:56.120Z,21.30
2022-12-16T05:06:42.013Z,21.35
2022-12-16T05:09:28.055Z,24.58
2022-12-16T05:12:14.049Z,23.33
2022-12-16T05:15:00.093Z,22.20
2022-12-16T05:17:46.249Z,2.80
2022-12-16T05:20:32.670Z,26.52
2022-12-16T05:23:18.682Z,23.92
2022-12-16T05:26:04.541Z,27.20
2022-12-16T05:28:50.496Z,27.83
2022-12-16T05:31:37.035Z,27.45
2022-12-16T05:34:22.813Z,25.65
2022-12-16T05:37:08.986Z,27.02
2022-12-16T05:39:55.052Z,27.80
2022-12-16T05:42:41.264Z,29.70
2022-12-16T05:45:27.403Z,30.85
2022-12-16T05:48:14.477Z,12.57
2022-12-16T05:51:00.306Z,39.28
2022-12-16T05:53:56.905Z,36.53
2022-12-16T05:56:42.670Z,35.42
2022-12-16T05:59:28.915Z,28.87
2022-12-16T06:02:14.996Z,34.30
2022-12-16T06:05:01.390Z,30.48
2022-12-16T06:07:47.464Z,29.37
2022-12-16T06:10:33.706Z,34.40
2022-12-16T06:13:19.502Z,31.40
2022-12-16T06:16:08.952Z,31.15
2022-12-16T06:18:55.502Z,31.80
2022-12-16T06:21:41.499Z,31.65
2022-12-16T06:24:27.547Z,37.13
2022-12-16T06:27:13.563Z,33.15
2022-12-16T06:29:59.333Z,38.40
2022-12-16T06:32:45.404Z,36.20
2022-12-16T06:35:31.351Z,33.85
2022-12-16T06:38:17.756Z,38.00
2022-12-16T06:41:03.462Z,37.08
2022-12-16T06:43:49.450Z,38.83
2022-12-16T06:46:35.420Z,34.45
2022-12-16T06:49:21.635Z,36.97
2022-12-16T06:52:07.804Z,35.58
2022-12-16T06:54:53.908Z,34.42
2022-12-16T06:57:39.881Z,37.03
2022-12-16T07:00:26.583Z,34.50
2022-12-16T07:03:12.639Z,32.67
2022-12-16T07:05:58.902Z,35.35
2022-12-16T07:08:45.011Z,33.55
2022-12-16T07:11:31.283Z,34.13
2022-12-16T07:14:17.258Z,39.30
2022-12-16T07:17:03.596Z,39.05
2022-12-16T07:19:49.519Z,36.03
2022-12-16T07:22:35.865Z,33.63
2022-12-16T07:25:21.966Z,39.17
2022-12-16T07:28:13.817Z,39.88
2022-12-16T07:31:02.279Z,38.53
2022-12-16T07:33:48.657Z,36.08
2022-12-16T07:36:34.702Z,37.38
2022-12-16T07:39:21.003Z,41.03
2022-12-16T07:42:06.986Z,44.00
2022-12-16T07:45:03.989Z,45.03
2022-12-16T07:47:50.527Z,42.30
2022-12-16T07:50:37.372Z,44.75
2022-12-16T07:53:25.624Z,40.97
2022-12-16T07:56:15.858Z,45.42
2022-12-16T07:59:01.791Z,47.10
2022-12-16T08:01:48.053Z,43.20
2022-12-16T08:04:34.266Z,45.12
2022-12-16T08:07:20.315Z,43.05
2022-12-16T08:10:06.562Z,44.00
2022-12-16T08:12:52.829Z,40.83
2022-12-16T08:15:38.830Z,40.95
2022-12-16T08:18:24.821Z,42.60
2022-12-16T08:21:11.061Z,45.70
2022-12-16T08:23:57.137Z,53.53
2022-12-16T08:26:43.134Z,50.55
2022-12-16T08:29:45.783Z,44.42
2022-12-16T08:32:33.936Z,44.35
2022-12-16T08:35:19.860Z,49.80
2022-12-16T08:38:12.294Z,43.03
2022-12-16T08:41:01.795Z,43.08
2022-12-16T08:43:52.635Z,47.90
2022-12-16T08:46:39.385Z,40.45
2022-12-16T08:49:25.797Z,41.97
2022-12-16T08:52:11.702Z,43.20
2022-12-16T08:54:58.035Z,40.95
2022-12-16T08:57:43.976Z,41.15
2022-12-16T09:00:30.885Z,42.58
2022-12-16T09:03:18.225Z,41.30
2022-12-16T09:06:04.515Z,40.75
2022-12-16T09:08:51.168Z,36.33
2022-12-16T09:11:37.446Z,39.72
2022-12-16T09:14:23.727Z,32.25
2022-12-16T09:17:09.845Z,33.47
2022-12-16T09:19:55.804Z,34.50
2022-12-16T09:22:41.750Z,34.95
2022-12-16T09:25:27.917Z,35.00
2022-12-16T09:28:13.883Z,29.77
2022-12-16T09:30:59.973Z,36.50
2022-12-16T09:33:46.354Z,35.30
2022-12-16T09:36:32.186Z,40.03
2022-12-16T09:39:18.623Z,39.13
2022-12-16T09:42:27.837Z,38.95
2022-12-16T09:45:36.096Z,40.30
2022-12-16T09:48:31.517Z,44.33
2022-12-16T09:56:55.179Z,46.03
2022-12-16T09:59:46.298Z,42.65
2022-12-16T10:02:34.616Z,39.65
2022-12-16T10:05:21.222Z,44.42
2022-12-16T10:08:17.160Z,40.92
2022-12-16T10:11:14.208Z,35.83
2022-12-16T10:14:07.832Z,34.05
2022-12-16T10:17:03.335Z,39.35
2022-12-16T10:19:52.502Z,40.58
2022-12-16T10:22:56.233Z,39.92
2022-12-16T10:25:52.620Z,41.25
2022-12-16T10:28:54.419Z,37.47
2022-12-16T10:31:41.235Z,39.28
2022-12-16T10:34:33.766Z,42.95
2022-12-16T10:37:21.246Z,35.30
2022-12-16T10:40:11.541Z,36.95
2022-12-16T10:43:22.207Z,36.85
2022-12-16T10:46:10.713Z,33.35
2022-12-16T10:48:57.307Z,35.35
2022-12-16T10:51:46.540Z,42.03
2022-12-16T10:54:46.919Z,38.83
2022-12-16T10:57:51.845Z,48.75
2022-12-16T11:00:39.861Z,49.67
2022-12-16T11:03:41.558Z,44.70
2022-12-16T11:06:28.474Z,42.08
2022-12-16T11:09:14.268Z,45.55
2022-12-16T11:12:00.507Z,42.35
2022-12-16T11:15:28.261Z,42.25
2022-12-16T11:18:24.848Z,42.47
2022-12-16T11:21:37.034Z,40.22
2022-12-16T11:24:38.215Z,41.70
2022-12-16T11:27:32.597Z,43.05
2022-12-16T11:30:32.314Z,44.50
2022-12-16T11:33:21.636Z,40.15
2022-12-16T11:36:12.713Z,38.08
2022-12-16T11:39:02.527Z,44.35
2022-12-16T11:41:52.663Z,39.70
2022-12-16T11:44:43.829Z,37.55
2022-12-16T11:47:54.605Z,33.70
2022-12-16T11:50:43.520Z,39.75
2022-12-16T11:53:56.609Z,38.28
2022-12-16T11:56:45.152Z,36.97
2022-12-16T11:59:51.178Z,39.63
2022-12-16T12:02:43.305Z,37.83
2022-12-16T12:05:32.168Z,33.88
2022-12-16T12:08:29.403Z,36.67
2022-12-16T12:11:37.700Z,39.20
2022-12-16T12:14:34.344Z,34.85
2022-12-16T12:17:37.925Z,44.08
2022-12-16T12:21:01.506Z,42.70
2022-12-16T12:24:16.848Z,38.50
2022-12-16T12:27:17.073Z,36.58
2022-12-16T12:30:26.601Z,38.83
2022-12-16T12:33:43.678Z,39.80
2022-12-16T12:36:38.243Z,33.33
2022-12-16T12:39:44.054Z,30.30
2022-12-16T12:42:41.151Z,27.30
2022-12-16T12:45:36.221Z,27.65
2022-12-16T12:48:47.664Z,23.60
2022-12-16T12:51:48.211Z,22.67
2022-12-16T12:54:55.488Z,28.23
2022-12-16T12:57:44.612Z,23.12
2022-12-16T13:00:41.761Z,21.25
2022-12-16T13:03:37.688Z,20.85
2022-12-16T13:06:25.211Z,22.42
2022-12-16T13:09:11.387Z,19.23
2022-12-16T13:12:18.831Z,18.98
2022-12-16T13:15:13.453Z,16.85
2022-12-16T13:18:18.294Z,18.20
2022-12-16T13:21:12.478Z,15.50
2022-12-16T13:24:02.893Z,18.45
2022-12-16T13:26:51.181Z,19.95
2022-12-16T13:29:48.396Z,17.98
2022-12-16T13:32:42.493Z,19.00
2022-12-16T13:35:28.760Z,16.23
2022-12-16T13:38:37.122Z,16.20
2022-12-16T13:41:25.619Z,16.42
2022-12-16T13:44:16.885Z,20.80
2022-12-16T13:47:11.729Z,16.73
2022-12-16T13:50:01.864Z,16.75
2022-12-16T13:52:58.280Z,17.80
2022-12-16T13:55:56.685Z,16.87
2022-12-16T13:58:57.462Z,17.12
2022-12-16T14:02:10.735Z,17.20
2022-12-16T14:05:01.964Z,19.75
2022-12-16T14:07:51.353Z,22.50
2022-12-16T14:10:49.398Z,23.08
2022-12-16T14:14:17.240Z,23.40
2022-12-16T14:17:10.278Z,18.98
2022-12-16T14:20:11.038Z,17.30
2022-12-16T14:23:47.144Z,18.52
2022-12-16T14:26:34.404Z,20.10
2022-12-16T14:29:22.259Z,20.88
2022-12-16T14:32:08.286Z,19.17
2022-12-16T14:34:55.552Z,21.00
2022-12-16T14:37:48.469Z,18.25
2022-12-16T14:40:48.078Z,21.48
2022-12-16T14:43:43.027Z,18.92
2022-12-16T14:46:49.948Z,31.40
2022-12-16T14:49:40.525Z,26.45
2022-12-16T14:52:37.389Z,23.95
2022-12-16T14:55:46.460Z,22.08
2022-12-16T14:58:35.341Z,21.75
2022-12-16T15:01:33.587Z,21.95
2022-12-16T15:04:21.618Z,27.73
2022-12-16T15:07:09.371Z,30.15
2022-12-16T15:10:02.467Z,25.12
2022-12-16T15:12:52.623Z,22.92
2022-12-16T15:15:56.300Z,21.65
2022-12-16T15:18:58.079Z,21.55
2022-12-16T15:21:44.389Z,16.37
2022-12-16T15:24:35.546Z,19.40
2022-12-16T15:27:43.470Z,18.67
2022-12-16T15:30:53.339Z,20.55
2022-12-16T15:33:47.936Z,23.30
2022-12-16T15:36:54.940Z,22.15
2022-12-16T15:39:52.847Z,20.62
2022-12-16T15:42:47.523Z,21.77
2022-12-16T15:45:48.569Z,25.83
2022-12-16T15:48:47.691Z,24.95
2022-12-16T15:51:50.267Z,29.48
2022-12-16T15:54:41.408Z,24.33
2022-12-16T15:57:48.734Z,24.92
2022-12-16T16:00:47.919Z,27.37
2022-12-16T16:03:47.030Z,28.60
2022-12-16T16:06:33.985Z,30.23
2022-12-16T16:09:20.756Z,24.00
2022-12-16T16:12:06.854Z,24.08
2022-12-16T16:14:53.233Z,22.08
2022-12-16T16:17:41.212Z,25.17
2022-12-16T16:20:33.298Z,25.05
2022-12-16T16:23:19.327Z,27.95
2022-12-16T16:26:07.037Z,26.17
2022-12-16T16:28:53.914Z,24.05
2022-12-16T16:31:40.250Z,21.40
2022-12-16T16:34:26.493Z,21.60
2022-12-16T16:37:14.838Z,18.92
2022-12-16T16:40:01.879Z,21.25
2022-12-16T16:42:48.769Z,19.42
2022-12-16T16:45:34.835Z,21.20
2022-12-16T16:48:32.379Z,21.98
2022-12-16T16:51:19.527Z,18.30
2022-12-16T16:54:05.997Z,17.55
2022-12-16T16:56:53.449Z,20.95
2022-12-16T16:59:43.230Z,25.25
2022-12-16T17:02:41.218Z,23.17
2022-12-16T17:05:29.417Z,21.12
2022-12-16T17:08:15.959Z,17.75
2022-12-16T17:11:02.290Z,23.48
2022-12-16T17:13:48.281Z,22.55
2022-12-16T17:16:34.611Z,23.50
2022-12-16T17:19:21.640Z,26.23
2022-12-16T17:22:07.906Z,26.62
2022-12-16T17:24:54.851Z,21.77
2022-12-16T17:27:43.081Z,21.52
2022-12-16T17:30:40.692Z,21.65
2022-12-16T17:33:30.272Z,25.27
2022-12-16T17:36:16.651Z,25.12
2022-12-16T17:39:03.091Z,26.98
2022-12-16T17:41:50.829Z,26.73
2022-12-16T17:44:37.319Z,24.85
2022-12-16T17:47:23.414Z,30.98
2022-12-16T17:50:09.493Z,32.38
2022-12-16T17:52:55.230Z,34.08
2022-12-16T17:55:41.727Z,32.28
2022-12-16T17:58:30.831Z,33.38
2022-12-16T18:01:22.618Z,35.35
2022-12-16T18:04:09.912Z,33.15
2022-12-16T18:07:03.592Z,29.42
2022-12-16T18:09:49.681Z,34.05
2022-12-16T18:12:36.192Z,31.37
2022-12-16T18:15:22.559Z,34.05
2022-12-16T18:18:08.880Z,34.10
2022-12-16T18:20:55.364Z,33.97
2022-12-16T18:23:41.676Z,30.42
2022-12-16T18:26:28.734Z,27.75
2022-12-16T18:29:14.864Z,26.45
2022-12-16T18:32:01.328Z,27.13
2022-12-16T18:34:46.989Z,30.73
2022-12-16T18:37:35.303Z,32.33
2022-12-16T18:40:21.651Z,28.83
2022-12-16T18:43:07.771Z,36.55
2022-12-16T18:45:54.653Z,43.45
2022-12-16T18:48:41.483Z,38.53
2022-12-16T18:51:27.582Z,35.17
2022-12-16T18:54:19.045Z,35.72
2022-12-16T18:57:05.564Z,38.35
2022-12-16T18:59:52.331Z,40.75
2022-12-16T19:02:38.969Z,41.53
2022-12-16T19:05:26.040Z,43.38
2022-12-16T19:08:14.571Z,40.45
2022-12-16T19:11:01.654Z,44.88
2022-12-16T19:13:47.914Z,49.03
2022-12-16T19:16:34.616Z,46.60
2022-12-16T19:19:20.918Z,48.45
2022-12-16T19:22:06.969Z,49.03
2022-12-16T19:24:56.183Z,54.58
2022-12-16T19:27:43.828Z,48.87
2022-12-16T19:30:30.478Z,50.20
2022-12-16T19:33:16.844Z,45.30
2022-12-16T19:36:02.958Z,46.88
2022-12-16T19:38:49.357Z,52.72
2022-12-16T19:41:36.528Z,50.17
2022-12-16T19:44:23.531Z,51.40
2022-12-16T19:47:09.579Z,55.58
2022-12-16T19:49:56.079Z,1.95
2022-12-16T19:52:42.919Z,2.60
2022-12-16T19:55:30.216Z,51.75
2022-12-16T19:58:33.782Z,53.22
2022-12-16T20:01:27.880Z,53.67
2022-12-16T20:04:17.741Z,54.20
2022-12-16T20:07:04.884Z,57.38
2022-12-16T20:09:51.771Z,54.40
2022-12-16T20:12:38.117Z,54.53
2022-12-16T20:15:24.972Z,62.15
2022-12-16T20:18:19.017Z,2.22
2022-12-16T20:21:05.354Z,63.72
2022-12-16T20:23:51.995Z,59.88
2022-12-16T20:26:41.572Z,62.53
2022-12-16T20:29:28.201Z,61.58
2022-12-16T20:32:14.516Z,63.42
2022-12-16T20:35:00.529Z,1.12
2022-12-16T20:37:46.913Z,5.78
2022-12-16T20:40:32.838Z,63.92
2022-12-16T20:43:19.137Z,66.37
2022-12-16T20:46:05.095Z,59.22
2022-12-16T20:48:52.015Z,65.80
2022-12-16T20:51:38.496Z,66.68
2022-12-16T20:54:44.816Z,63.60
2022-12-16T21:00:17.542Z,65.87
2022-12-16T21:03:11.019Z,64.80
2022-12-16T21:05:57.934Z,65.40
2022-12-16T21:08:43.809Z,59.70
2022-12-16T21:11:30.350Z,63.80
2022-12-16T21:14:17.392Z,64.00
2022-12-16T21:17:04.051Z,67.32
2022-12-16T21:19:50.719Z,66.70
2022-12-16T21:22:38.704Z,69.28
2022-12-16T21:25:25.981Z,67.30
2022-12-16T21:28:18.744Z,73.37
2022-12-16T21:31:04.872Z,75.75
2022-12-16T21:33:51.847Z,76.72
2022-12-16T21:36:37.984Z,68.72
2022-12-16T21:39:24.250Z,73.47
2022-12-16T21:42:10.353Z,71.65
2022-12-16T21:44:56.802Z,77.07
2022-12-16T21:47:43.428Z,85.55
2022-12-16T21:50:29.839Z,73.20
2022-12-16T21:53:15.893Z,70.87
2022-12-16T21:56:02.263Z,75.05
2022-12-16T21:58:48.286Z,79.55
2022-12-16T22:01:34.570Z,82.80
2022-12-16T22:04:40.818Z,77.80
2022-12-16T22:07:27.277Z,79.28
2022-12-16T22:10:13.385Z,85.38
2022-12-16T22:12:59.137Z,2.17
2022-12-16T22:15:45.570Z,83.12
2022-12-16T22:18:31.510Z,76.68
2022-12-16T22:21:22.805Z,82.88
2022-12-16T22:24:09.254Z,81.50
2022-12-16T22:26:55.493Z,87.68
2022-12-16T22:29:42.945Z,82.88
2022-12-16T22:32:29.196Z,92.03
2022-12-16T22:35:15.811Z,85.68
2022-12-16T22:38:02.027Z,89.10
2022-12-16T22:40:48.097Z,86.70
2022-12-16T22:43:34.721Z,84.65
2022-12-16T22:46:24.025Z,81.70
2022-12-16T22:49:10.209Z,84.80
2022-12-16T22:51:56.138Z,82.78
2022-12-16T22:54:42.842Z,91.05
2022-12-16T22:57:28.742Z,85.25
2022-12-16T23:00:15.103Z,87.78
2022-12-16T23:03:00.991Z,89.45
2022-12-16T23:05:47.400Z,86.25
2022-12-16T23:08:33.309Z,86.63
2022-12-16T23:11:19.393Z,36.47
2022-12-16T23:14:05.410Z,90.00
2022-12-16T23:16:51.696Z,85.82
2022-12-16T23:19:39.312Z,91.25
2022-12-16T23:22:25.673Z,4.12
2022-12-16T23:25:11.458Z,85.25
2022-12-16T23:27:57.537Z,87.32
2022-12-16T23:30:43.577Z,85.87
2022-12-16T23:33:29.700Z,91.70
2022-12-16T23:36:15.642Z,8.25
2022-12-16T23:39:02.008Z,91.72
2022-12-16T23:41:47.970Z,99.70
2022-12-16T23:44:34.329Z,22.98
2022-12-16T23:47:20.397Z,96.35
2022-12-16T23:50:06.466Z,97.62
2022-12-16T23:52:53.979Z,91.87
2022-12-16T23:55:42.484Z,92.88
2022-12-16T23:58:28.492Z,95.32
